Time;durP1;ratioP1;P1;durP2;ratioP2;P2;SDS_P1;SDS_P2;PMS_P1;PMS_P2;Temp;Humidity;BMP_temperature;BMP_pressure;BME280_temperature;BME280_humidity;BME280_pressure;Samples;Min_cycle;Max_cycle;Signal;HPM_P1;HPM_P2
2020/05/21 00:00:09;;;;;;;1.70;1.60;;;;;;;19.25;44.88;100985.19;;;;-49
2020/05/21 00:03:25;;;;;;;1.79;1.69;;;;;;;19.24;44.81;100983.73;;;;-50
2020/05/21 00:11:16;;;;;;;1.62;1.52;;;;;;;19.23;44.86;100983.02;;;;-49
2020/05/21 00:14:13;;;;;;;1.80;1.70;;;;;;;19.22;44.89;100980.84;;;;-50
2020/05/21 00:17:46;;;;;;;1.71;1.61;;;;;;;19.22;44.90;100976.50;;;;-50
2020/05/21 00:23:13;;;;;;;1.64;1.50;;;;;;;19.22;44.84;100968.89;;;;-50
2020/05/21 00:26:04;;;;;;;1.70;1.60;;;;;;;19.22;44.85;100969.30;;;;-50
2020/05/21 00:29:04;;;;;;;1.83;1.70;;;;;;;19.22;44.89;100973.58;;;;-50
2020/05/21 00:32:05;;;;;;;1.74;1.64;;;;;;;19.21;44.89;100966.99;;;;-50
2020/05/21 00:35:04;;;;;;;1.81;1.71;;;;;;;19.21;44.82;100968.17;;;;-49
2020/05/21 00:38:05;;;;;;;1.97;1.70;;;;;;;19.20;44.87;100965.09;;;;-49
2020/05/21 00:41:05;;;;;;;1.69;1.59;;;;;;;19.21;44.82;100967.05;;;;-49
2020/05/21 00:44:05;;;;;;;1.73;1.63;;;;;;;19.21;44.86;100969.67;;;;-50
2020/05/21 00:47:05;;;;;;;1.80;1.70;;;;;;;19.21;44.86;100968.89;;;;-50
2020/05/21 00:50:05;;;;;;;1.89;1.79;;;;;;;19.20;44.86;100972.98;;;;-49
2020/05/21 00:53:05;;;;;;;1.69;1.59;;;;;;;19.20;44.81;100974.21;;;;-49
2020/05/21 00:56:04;;;;;;;1.73;1.63;;;;;;;19.20;44.83;100976.73;;;;-50
2020/05/21 00:59:04;;;;;;;1.67;1.57;;;;;;;19.19;44.87;100978.78;;;;-50
2020/05/21 01:02:12;;;;;;;1.84;1.74;;;;;;;19.19;44.80;100977.61;;;;-50
2020/05/21 01:05:13;;;;;;;1.71;1.61;;;;;;;19.19;44.87;100983.91;;;;-49
2020/05/21 01:08:20;;;;;;;1.78;1.68;;;;;;;19.19;44.87;100984.73;;;;-50
2020/05/21 01:11:10;;;;;;;1.85;1.75;;;;;;;19.18;44.86;100987.77;;;;-49
2020/05/21 01:19:15;;;;;;;1.73;1.63;;;;;;;19.18;44.79;100982.25;;;;-49
2020/05/21 01:22:19;;;;;;;1.69;1.59;;;;;;;19.18;44.85;100989.83;;;;-50
2020/05/21 01:30:09;;;;;;;1.71;1.61;;;;;;;19.17;44.85;100990.16;;;;-50
2020/05/21 01:33:20;;;;;;;1.72;1.62;;;;;;;19.18;44.77;100985.31;;;;-49
2020/05/21 01:36:08;;;;;;;1.79;1.69;;;;;;;19.18;44.84;100988.56;;;;-49
2020/05/21 01:39:04;;;;;;;1.72;1.62;;;;;;;19.17;44.79;100986.14;;;;-50
2020/05/21 01:42:05;;;;;;;1.72;1.62;;;;;;;19.18;44.81;100990.73;;;;-50
2020/05/21 01:45:04;;;;;;;1.75;1.65;;;;;;;19.16;44.82;100982.91;;;;-49
2020/05/21 01:48:05;;;;;;;1.70;1.60;;;;;;;19.17;44.76;100982.58;;;;-50
2020/05/21 01:51:05;;;;;;;1.68;1.58;;;;;;;19.17;44.79;100986.83;;;;-49
2020/05/21 01:54:05;;;;;;;2.42;1.65;;;;;;;19.17;44.85;100983.14;;;;-49
2020/05/21 01:57:05;;;;;;;1.68;1.58;;;;;;;19.17;44.77;100984.42;;;;-50
2020/05/21 02:00:04;;;;;;;1.70;1.60;;;;;;;19.17;44.79;100983.14;;;;-49
2020/05/21 02:03:08;;;;;;;1.80;1.70;;;;;;;19.16;44.79;100980.22;;;;-50
2020/05/21 02:06:09;;;;;;;1.64;1.54;;;;;;;19.16;44.85;100984.75;;;;-50
2020/05/21 02:09:05;;;;;;;2.11;1.64;;;;;;;19.16;44.81;100984.20;;;;-49
2020/05/21 02:12:06;;;;;;;1.80;1.70;;;;;;;19.16;44.83;100983.07;;;;-50
2020/05/21 02:18:16;;;;;;;1.73;1.63;;;;;;;19.16;44.80;100980.63;;;;-49
2020/05/21 02:42:27;;;;;;;2.03;1.83;;;;;;;19.15;44.74;100978.95;;;;-49
2020/05/21 03:00:12;;;;;;;1.74;1.64;;;;;;;19.13;44.81;100978.14;;;;-49
2020/05/21 03:04:55;;;;;;;1.80;1.70;;;;;;;19.13;44.81;100982.07;;;;-49
2020/05/21 03:20:22;;;;;;;1.79;1.69;;;;;;;19.11;44.80;100986.28;;;;-52
2020/05/21 03:23:58;;;;;;;1.77;1.67;;;;;;;19.12;44.79;100987.23;;;;-53
2020/05/21 03:33:23;;;;;;;1.69;1.59;;;;;;;19.11;44.82;100987.91;;;;-53
2020/05/21 03:36:16;;;;;;;1.80;1.70;;;;;;;19.11;44.80;100988.68;;;;-54
2020/05/21 03:39:14;;;;;;;1.70;1.60;;;;;;;19.11;44.76;100994.70;;;;-54
2020/05/21 03:46:21;;;;;;;1.81;1.71;;;;;;;19.10;44.74;100993.59;;;;-54
2020/05/21 03:54:04;;;;;;;1.89;1.79;;;;;;;19.10;44.78;100999.51;;;;-54
2020/05/21 03:59:30;;;;;;;1.74;1.64;;;;;;;19.09;44.83;101004.25;;;;-54
2020/05/21 04:02:43;;;;;;;1.78;1.68;;;;;;;19.10;44.79;101004.19;;;;-54
2020/05/21 04:08:39;;;;;;;1.80;1.70;;;;;;;19.09;44.77;101007.67;;;;-54
2020/05/21 04:11:30;;;;;;;1.90;1.80;;;;;;;19.09;44.75;101005.98;;;;-54
2020/05/21 04:14:30;;;;;;;1.80;1.70;;;;;;;19.09;44.78;101012.19;;;;-54
2020/05/21 04:21:39;;;;;;;1.81;1.71;;;;;;;19.08;44.79;101016.31;;;;-54
2020/05/21 04:24:30;;;;;;;1.90;1.80;;;;;;;19.09;44.79;101019.04;;;;-54
2020/05/21 04:27:30;;;;;;;1.89;1.79;;;;;;;19.08;44.80;101024.35;;;;-54
2020/05/21 04:30:48;;;;;;;1.75;1.65;;;;;;;19.07;44.78;101029.32;;;;-54
2020/05/21 04:33:38;;;;;;;2.10;1.90;;;;;;;19.08;44.82;101028.03;;;;-54
2020/05/21 04:36:30;;;;;;;1.75;1.65;;;;;;;19.09;44.81;101034.94;;;;-54
2020/05/21 04:39:30;;;;;;;1.87;1.77;;;;;;;19.08;44.79;101031.48;;;;-54
2020/05/21 04:42:30;;;;;;;1.85;1.75;;;;;;;19.08;44.73;101040.75;;;;-54
2020/05/21 04:45:30;;;;;;;1.90;1.80;;;;;;;19.08;44.84;101037.97;;;;-54
2020/05/21 04:48:30;;;;;;;1.80;1.70;;;;;;;19.08;44.80;101039.75;;;;-54
2020/05/21 04:51:30;;;;;;;1.81;1.71;;;;;;;19.08;44.85;101035.56;;;;-54
2020/05/21 04:54:30;;;;;;;1.76;1.66;;;;;;;19.08;44.74;101037.30;;;;-54
2020/05/21 04:57:30;;;;;;;1.93;1.83;;;;;;;19.08;44.80;101040.41;;;;-54
2020/05/21 05:00:30;;;;;;;1.83;1.73;;;;;;;19.08;44.77;101042.49;;;;-54
2020/05/21 05:03:33;;;;;;;1.87;1.77;;;;;;;19.08;44.80;101043.33;;;;-55
2020/05/21 05:09:46;;;;;;;1.90;1.80;;;;;;;19.08;44.81;101051.91;;;;-54
2020/05/21 05:13:31;;;;;;;1.92;1.75;;;;;;;19.08;44.80;101052.08;;;;-54
2020/05/21 05:31:42;;;;;;;2.11;1.91;;;;;;;19.08;44.83;101070.95;;;;-54
2020/05/21 05:34:46;;;;;;;1.90;1.80;;;;;;;19.07;44.80;101077.64;;;;-57
2020/05/21 05:38:19;;;;;;;1.91;1.81;;;;;;;19.08;44.81;101075.52;;;;-56
2020/05/21 05:41:36;;;;;;;1.85;1.75;;;;;;;19.07;44.80;101073.95;;;;-56
2020/05/21 05:44:45;;;;;;;1.90;1.80;;;;;;;19.08;44.82;101077.76;;;;-56
2020/05/21 06:00:39;;;;;;;6.95;6.15;;;;;;;18.99;52.46;101092.58;;;;-53
2020/05/21 06:19:45;;;;;;;8.65;5.49;;;;;;;19.08;51.20;101091.98;;;;-55
2020/05/21 06:22:37;;;;;;;6.29;4.88;;;;;;;19.10;50.80;101093.67;;;;-56
2020/05/21 06:25:30;;;;;;;5.21;4.67;;;;;;;19.11;50.44;101094.77;;;;-55
2020/05/21 06:28:29;;;;;;;6.33;4.65;;;;;;;19.14;50.10;101092.52;;;;-56
2020/05/21 06:31:30;;;;;;;5.26;4.77;;;;;;;19.14;49.82;101094.53;;;;-56
2020/05/21 06:34:29;;;;;;;4.74;4.32;;;;;;;19.15;49.69;101100.22;;;;-56
2020/05/21 06:37:29;;;;;;;4.99;4.14;;;;;;;19.16;49.37;101098.60;;;;-51
2020/05/21 06:40:29;;;;;;;4.43;4.03;;;;;;;19.17;49.21;101103.30;;;;-51
2020/05/21 06:43:29;;;;;;;4.36;3.98;;;;;;;19.18;49.01;101101.19;;;;-51
2020/05/21 06:46:29;;;;;;;4.47;4.07;;;;;;;19.18;48.84;101105.31;;;;-51
2020/05/21 06:49:30;;;;;;;4.28;3.86;;;;;;;19.18;48.68;101105.58;;;;-51
2020/05/21 06:52:29;;;;;;;4.17;3.77;;;;;;;19.19;48.59;101107.81;;;;-51
2020/05/21 06:55:29;;;;;;;3.97;3.66;;;;;;;19.20;48.47;101109.00;;;;-51
2020/05/21 06:58:29;;;;;;;3.88;3.58;;;;;;;19.20;48.30;101108.94;;;;-51
2020/05/21 07:01:29;;;;;;;4.53;3.84;;;;;;;19.20;48.25;101110.34;;;;-51
2020/05/21 07:04:30;;;;;;;4.16;3.86;;;;;;;19.20;48.20;101105.25;;;;-51
2020/05/21 07:07:30;;;;;;;3.95;3.65;;;;;;;19.21;48.01;101105.66;;;;-51
2020/05/21 07:10:29;;;;;;;4.01;3.69;;;;;;;19.21;47.89;101108.23;;;;-51
2020/05/21 07:13:29;;;;;;;3.67;3.37;;;;;;;19.21;47.87;101104.64;;;;-56
2020/05/21 07:27:30;;;;;;;3.98;3.61;;;;;;;19.22;47.54;101097.33;;;;-51
2020/05/21 07:30:30;;;;;;;3.57;3.27;;;;;;;19.23;47.47;101098.28;;;;-51
2020/05/21 07:33:30;;;;;;;3.98;3.57;;;;;;;19.23;47.43;101096.10;;;;-50
2020/05/21 07:36:30;;;;;;;3.65;3.35;;;;;;;19.22;47.31;101094.48;;;;-51
2020/05/21 07:39:30;;;;;;;3.49;3.19;;;;;;;19.23;47.28;101093.60;;;;-51
2020/05/21 07:42:33;;;;;;;3.61;3.31;;;;;;;19.23;47.31;101089.67;;;;-51
2020/05/21 07:52:40;;;;;;;3.63;3.32;;;;;;;19.24;47.24;101090.08;;;;-51
2020/05/21 07:55:30;;;;;;;3.81;3.47;;;;;;;19.26;47.50;101093.77;;;;-49
2020/05/21 07:58:48;;;;;;;4.59;3.24;;;;;;;19.28;47.57;101095.38;;;;-47
2020/05/21 08:05:49;;;;;;;4.55;3.13;;;;;;;19.29;47.66;101093.49;;;;-51
2020/05/21 08:19:14;;;;;;;3.47;3.17;;;;;;;19.35;47.92;101097.05;;;;-51
2020/05/21 08:21:30;;;;;;;3.97;3.33;;;;;;;19.38;47.85;101098.91;;;;-51
2020/05/21 08:24:30;;;;;;;5.49;3.32;;;;;;;19.39;47.56;101098.30;;;;-52
2020/05/21 08:27:30;;;;;;;6.27;3.20;;;;;;;19.39;47.82;101094.81;;;;-49
2020/05/21 08:30:30;;;;;;;3.47;3.14;;;;;;;19.42;47.89;101098.73;;;;-49
2020/05/21 08:33:30;;;;;;;3.61;3.12;;;;;;;19.41;47.87;101097.27;;;;-48
2020/05/21 08:36:30;;;;;;;3.31;3.01;;;;;;;19.44;47.91;101102.59;;;;-52
2020/05/21 08:39:30;;;;;;;3.77;3.46;;;;;;;19.44;47.59;101097.56;;;;-50
2020/05/21 08:42:30;;;;;;;4.15;2.90;;;;;;;19.45;47.46;101094.37;;;;-52
2020/05/21 08:45:30;;;;;;;4.23;2.99;;;;;;;19.44;47.49;101092.38;;;;-51
2020/05/21 08:48:30;;;;;;;5.16;3.03;;;;;;;19.43;47.49;101087.84;;;;-56
2020/05/21 08:51:30;;;;;;;3.19;2.90;;;;;;;19.43;47.44;101083.92;;;;-56
2020/05/21 08:54:30;;;;;;;3.47;3.17;;;;;;;19.43;47.38;101087.45;;;;-56
2020/05/21 08:57:30;;;;;;;3.47;3.11;;;;;;;19.42;47.28;101085.71;;;;-56
2020/05/21 09:00:30;;;;;;;3.72;3.11;;;;;;;19.43;47.32;101085.55;;;;-57
2020/05/21 09:03:30;;;;;;;3.40;3.10;;;;;;;19.43;47.29;101080.92;;;;-58
2020/05/21 09:06:30;;;;;;;3.40;3.10;;;;;;;19.42;47.31;101079.70;;;;-57
2020/05/21 09:09:30;;;;;;;3.29;2.95;;;;;;;19.43;47.22;101079.35;;;;-58
2020/05/21 09:12:30;;;;;;;3.87;3.10;;;;;;;19.42;47.17;101073.70;;;;-58
2020/05/21 09:15:30;;;;;;;4.73;3.25;;;;;;;19.44;47.28;101074.38;;;;-55
2020/05/21 09:18:30;;;;;;;5.33;3.09;;;;;;;19.45;47.45;101076.29;;;;-54
2020/05/21 09:21:30;;;;;;;4.73;3.13;;;;;;;19.46;47.47;101072.75;;;;-52
2020/05/21 09:24:30;;;;;;;8.68;3.31;;;;;;;19.47;47.64;101067.17;;;;-54
2020/05/21 09:27:30;;;;;;;4.58;3.31;;;;;;;19.49;47.70;101071.75;;;;-52
2020/05/21 09:30:30;;;;;;;4.91;3.21;;;;;;;19.52;47.62;101071.47;;;;-55
2020/05/21 09:33:30;;;;;;;6.07;3.05;;;;;;;19.52;47.67;101067.19;;;;-54
2020/05/21 09:36:30;;;;;;;4.37;3.01;;;;;;;19.54;47.68;101066.95;;;;-54
2020/05/21 09:39:30;;;;;;;3.40;2.84;;;;;;;19.55;47.54;101066.50;;;;-50
2020/05/21 09:42:30;;;;;;;3.61;2.93;;;;;;;19.55;47.56;101068.51;;;;-52
2020/05/21 09:45:30;;;;;;;4.80;2.99;;;;;;;19.55;47.54;101072.81;;;;-53
2020/05/21 09:48:30;;;;;;;5.64;2.85;;;;;;;19.57;47.54;101072.98;;;;-49
2020/05/21 09:51:30;;;;;;;5.46;3.10;;;;;;;19.57;47.53;101070.30;;;;-47
2020/05/21 09:54:30;;;;;;;5.49;3.05;;;;;;;19.58;47.49;101064.81;;;;-51
2020/05/21 09:57:30;;;;;;;4.64;2.87;;;;;;;19.59;47.28;101063.80;;;;-51
2020/05/21 10:00:30;;;;;;;6.00;3.07;;;;;;;19.58;47.26;101064.59;;;;-51
2020/05/21 10:03:30;;;;;;;4.56;2.94;;;;;;;19.58;47.27;101067.27;;;;-48
2020/05/21 10:06:30;;;;;;;4.12;2.93;;;;;;;19.57;47.26;101063.03;;;;-48
2020/05/21 10:09:30;;;;;;;6.89;2.97;;;;;;;19.57;47.19;101061.24;;;;-48
2020/05/21 10:12:30;;;;;;;3.23;2.93;;;;;;;19.56;47.20;101059.30;;;;-51
2020/05/21 10:15:30;;;;;;;3.79;2.95;;;;;;;19.56;47.15;101061.80;;;;-56
2020/05/21 10:18:30;;;;;;;3.97;2.86;;;;;;;19.56;47.07;101055.27;;;;-58
2020/05/21 10:21:30;;;;;;;4.54;2.92;;;;;;;19.56;47.04;101049.12;;;;-56
2020/05/21 10:24:30;;;;;;;3.32;2.99;;;;;;;19.56;47.01;101046.95;;;;-57
2020/05/21 10:27:30;;;;;;;2.86;2.61;;;;;;;19.55;46.89;101045.22;;;;-57
2020/05/21 10:30:30;;;;;;;3.45;2.93;;;;;;;19.55;46.86;101044.89;;;;-57
2020/05/21 10:33:30;;;;;;;2.98;2.78;;;;;;;19.55;46.88;101048.08;;;;-56
2020/05/21 10:36:30;;;;;;;4.61;2.92;;;;;;;19.55;46.85;101044.38;;;;-56
2020/05/21 10:39:30;;;;;;;3.69;2.87;;;;;;;19.54;46.82;101043.94;;;;-57
2020/05/21 10:42:30;;;;;;;4.13;2.89;;;;;;;19.55;46.78;101048.73;;;;-57
2020/05/21 10:49:33;;;;;;;2.99;2.61;;;;;;;19.54;46.75;101042.66;;;;-57
2020/05/21 10:52:41;;;;;;;4.07;2.79;;;;;;;19.54;46.71;101039.64;;;;-57
2020/05/21 10:55:41;;;;;;;3.77;2.81;;;;;;;19.53;46.99;101033.50;;;;-52
2020/05/21 10:59:43;;;;;;;3.28;2.71;;;;;;;19.54;46.99;101027.42;;;;-51
2020/05/21 11:14:33;;;;;;;3.17;2.69;;;;;;;19.58;46.90;101021.92;;;;-51
2020/05/21 11:17:30;;;;;;;3.07;2.73;;;;;;;19.57;46.87;101015.44;;;;-51
2020/05/21 11:20:30;;;;;;;3.67;2.75;;;;;;;19.56;46.79;101014.95;;;;-52
2020/05/21 11:23:30;;;;;;;3.05;2.74;;;;;;;19.56;46.81;101011.53;;;;-51
2020/05/21 11:28:30;;;;;;;3.73;2.70;;;;;;;19.56;46.79;101011.03;;;;-52
2020/05/21 11:33:30;;;;;;;3.54;2.75;;;;;;;19.57;46.97;101003.95;;;;-54
2020/05/21 11:37:30;;;;;;;3.21;2.50;;;;;;;19.57;46.68;101001.27;;;;-54
2020/05/21 11:41:30;;;;;;;3.32;2.74;;;;;;;19.57;46.78;101001.27;;;;-54
2020/05/21 11:46:30;;;;;;;3.15;2.69;;;;;;;19.56;46.67;100996.70;;;;-54
2020/05/21 11:50:30;;;;;;;3.99;2.69;;;;;;;19.56;46.63;100998.14;;;;-56
2020/05/21 11:55:29;;;;;;;3.15;2.85;;;;;;;19.55;46.60;100987.93;;;;-56
2020/05/21 11:58:30;;;;;;;3.81;2.55;;;;;;;19.55;46.62;100980.22;;;;-56
2020/05/21 12:03:30;;;;;;;3.09;2.71;;;;;;;19.54;46.58;100977.27;;;;-57
2020/05/21 12:07:30;;;;;;;3.04;2.64;;;;;;;19.55;46.53;100977.64;;;;-48
2020/05/21 12:10:29;;;;;;;3.41;2.63;;;;;;;19.54;46.52;100971.29;;;;-48
2020/05/21 12:19:56;;;;;;;4.07;2.83;;;;;;;19.57;46.91;100962.91;;;;-55
2020/05/21 12:22:56;;;;;;;5.21;2.78;;;;;;;19.58;46.98;100962.72;;;;-53
2020/05/21 12:25:56;;;;;;;4.83;2.81;;;;;;;19.59;47.01;100964.17;;;;-54
2020/05/21 12:28:56;;;;;;;5.41;2.80;;;;;;;19.59;47.08;100966.13;;;;-55
2020/05/21 12:31:56;;;;;;;2.67;2.39;;;;;;;19.61;47.11;100968.31;;;;-53
2020/05/21 12:34:56;;;;;;;4.63;2.65;;;;;;;19.62;47.12;100967.52;;;;-54
2020/05/21 12:37:56;;;;;;;2.95;2.64;;;;;;;19.62;47.19;100972.15;;;;-52
2020/05/21 12:40:56;;;;;;;4.74;2.67;;;;;;;19.63;47.19;100964.05;;;;-52
2020/05/21 12:43:56;;;;;;;3.07;2.62;;;;;;;19.64;47.02;100967.73;;;;-51
2020/05/21 12:46:56;;;;;;;2.78;2.58;;;;;;;19.65;47.12;100965.44;;;;-50
2020/05/21 12:49:56;;;;;;;2.91;2.61;;;;;;;19.66;47.24;100966.22;;;;-50
2020/05/21 12:52:56;;;;;;;3.09;2.67;;;;;;;19.66;47.29;100974.49;;;;-52
2020/05/21 12:55:56;;;;;;;3.01;2.46;;;;;;;19.66;47.26;100976.84;;;;-52
2020/05/21 12:58:56;;;;;;;3.42;2.71;;;;;;;19.67;47.30;100971.20;;;;-47
2020/05/21 13:01:56;;;;;;;6.93;2.59;;;;;;;19.68;46.96;100972.13;;;;-51
2020/05/21 13:04:56;;;;;;;2.89;2.61;;;;;;;19.68;46.94;100973.03;;;;-52
2020/05/21 13:08:00;;;;;;;4.74;2.68;;;;;;;19.68;46.93;100970.01;;;;-52
2020/05/21 13:19:00;;;;;;;4.51;2.94;;;;;;;19.70;47.36;100959.16;;;;-51
2020/05/21 13:31:09;;;;;;;5.69;2.65;;;;;;;19.71;47.34;100947.65;;;;-57
2020/05/21 13:33:55;;;;;;;3.65;2.80;;;;;;;19.71;47.36;100947.88;;;;-58
2020/05/21 13:36:55;;;;;;;4.21;2.89;;;;;;;19.70;47.20;100943.47;;;;-57
2020/05/21 13:39:55;;;;;;;3.96;2.81;;;;;;;19.70;47.07;100944.37;;;;-58
2020/05/21 13:42:55;;;;;;;4.17;2.70;;;;;;;19.69;47.02;100945.93;;;;-57
2020/05/21 13:45:55;;;;;;;3.84;2.57;;;;;;;19.68;46.87;100944.04;;;;-52
2020/05/21 13:48:55;;;;;;;4.06;2.90;;;;;;;19.69;46.87;100946.44;;;;-51
2020/05/21 13:51:56;;;;;;;3.46;2.69;;;;;;;19.68;46.84;100939.41;;;;-51
2020/05/21 14:00:58;;;;;;;4.53;2.76;;;;;;;19.67;46.76;100939.86;;;;-51
2020/05/21 14:03:55;;;;;;;4.24;2.68;;;;;;;19.66;46.79;100934.45;;;;-52
2020/05/21 14:06:55;;;;;;;4.35;2.87;;;;;;;19.67;46.79;100929.06;;;;-51
2020/05/21 14:10:00;;;;;;;3.74;2.67;;;;;;;19.66;46.77;100931.47;;;;-51
2020/05/21 14:14:08;;;;;;;3.69;2.74;;;;;;;19.66;46.75;100931.43;;;;-52
2020/05/21 14:17:01;;;;;;;3.25;2.95;;;;;;;19.65;46.67;100926.85;;;;-51
2020/05/21 14:22:57;;;;;;;3.06;2.77;;;;;;;19.64;46.71;100921.98;;;;-51
2020/05/21 14:25:56;;;;;;;4.63;2.63;;;;;;;19.64;46.67;100920.20;;;;-51
2020/05/21 14:28:56;;;;;;;3.73;2.78;;;;;;;19.64;46.60;100918.59;;;;-51
2020/05/21 14:31:56;;;;;;;4.51;2.71;;;;;;;19.64;46.62;100916.75;;;;-51
2020/05/21 14:37:58;;;;;;;2.93;2.63;;;;;;;19.63;46.59;100917.08;;;;-51
2020/05/21 14:40:56;;;;;;;3.73;2.71;;;;;;;19.63;46.52;100909.09;;;;-52
2020/05/21 14:44:01;;;;;;;5.86;3.03;;;;;;;19.64;47.04;100905.73;;;;-51
2020/05/21 14:50:09;;;;;;;8.02;3.07;;;;;;;19.68;47.44;100898.39;;;;-53
2020/05/21 14:52:56;;;;;;;6.41;2.72;;;;;;;19.69;47.62;100904.44;;;;-55
2020/05/21 14:58:55;;;;;;;3.24;2.71;;;;;;;19.71;47.67;100900.02;;;;-55
2020/05/21 15:02:16;;;;;;;6.33;2.70;;;;;;;19.73;47.76;100903.36;;;;-54
2020/05/21 15:05:06;;;;;;;3.15;2.73;;;;;;;19.73;47.56;100906.75;;;;-52
2020/05/21 15:08:11;;;;;;;3.54;2.83;;;;;;;19.74;47.67;100898.99;;;;-51
2020/05/21 15:11:05;;;;;;;4.45;2.97;;;;;;;19.74;47.69;100901.88;;;;-48
2020/05/21 15:17:16;;;;;;;3.12;2.75;;;;;;;19.73;47.83;100900.73;;;;-48
2020/05/21 15:19:57;;;;;;;5.87;2.87;;;;;;;19.75;47.75;100898.70;;;;-51
2020/05/21 15:22:56;;;;;;;4.89;2.69;;;;;;;19.76;47.77;100889.48;;;;-51
2020/05/21 15:25:55;;;;;;;3.17;2.75;;;;;;;19.76;47.62;100889.88;;;;-53
2020/05/21 15:32:00;;;;;;;3.05;2.71;;;;;;;19.78;47.69;100893.27;;;;-51
2020/05/21 15:35:03;;;;;;;3.63;2.87;;;;;;;19.79;47.65;100893.21;;;;-52
2020/05/21 15:37:56;;;;;;;3.92;2.80;;;;;;;19.78;47.54;100898.13;;;;-51
2020/05/21 15:40:56;;;;;;;3.75;2.93;;;;;;;19.79;47.71;100902.60;;;;-54
2020/05/21 15:46:56;;;;;;;4.45;2.89;;;;;;;19.80;47.73;100896.61;;;;-52
2020/05/21 15:51:46;;;;;;;3.65;2.75;;;;;;;19.81;47.77;100899.84;;;;-50
2020/05/21 15:54:04;;;;;;;3.91;2.60;;;;;;;19.81;47.75;100904.66;;;;-52
2020/05/21 15:57:09;;;;;;;3.97;2.67;;;;;;;19.82;47.76;100902.36;;;;-52
2020/05/21 15:59:56;;;;;;;7.39;2.73;;;;;;;19.83;47.67;100895.70;;;;-52
2020/05/21 16:02:56;;;;;;;4.42;2.95;;;;;;;19.86;47.65;100896.91;;;;-54
2020/05/21 16:05:56;;;;;;;3.09;2.79;;;;;;;19.88;47.82;100889.88;;;;-54
2020/05/21 16:08:56;;;;;;;3.89;2.73;;;;;;;19.88;47.58;100892.82;;;;-53
2020/05/21 16:11:56;;;;;;;3.27;2.64;;;;;;;19.86;47.65;100898.70;;;;-53
2020/05/21 16:14:56;;;;;;;7.18;2.62;;;;;;;19.87;47.56;100903.17;;;;-55
2020/05/21 16:17:59;;;;;;;7.71;2.73;;;;;;;19.88;47.60;100899.19;;;;-59
2020/05/21 16:21:10;;;;;;;11.59;3.03;;;;;;;19.88;47.75;100897.02;;;;-54
2020/05/21 16:23:59;;;;;;;4.72;2.55;;;;;;;19.87;47.74;100888.59;;;;-55
2020/05/21 16:32:22;;;;;;;4.77;2.76;;;;;;;19.87;47.60;100882.66;;;;-53
2020/05/21 16:35:21;;;;;;;3.08;2.70;;;;;;;19.88;47.57;100882.27;;;;-53
2020/05/21 16:44:11;;;;;;;2.97;2.70;;;;;;;19.89;47.57;100877.86;;;;-53
2020/05/21 16:47:03;;;;;;;4.73;2.55;;;;;;;19.89;47.49;100878.91;;;;-53
2020/05/21 16:52:57;;;;;;;3.01;2.73;;;;;;;19.90;47.39;100868.19;;;;-54
2020/05/21 16:55:56;;;;;;;3.99;2.63;;;;;;;19.90;47.43;100870.23;;;;-54
2020/05/21 16:58:55;;;;;;;3.09;2.50;;;;;;;19.90;47.49;100876.67;;;;-54
2020/05/21 17:01:55;;;;;;;3.08;2.52;;;;;;;19.91;47.52;100877.55;;;;-51
2020/05/21 17:08:06;;;;;;;3.01;2.59;;;;;;;19.92;47.53;100879.23;;;;-53
2020/05/21 17:10:56;;;;;;;2.88;2.49;;;;;;;19.93;47.50;100880.63;;;;-52
2020/05/21 17:13:56;;;;;;;3.68;2.57;;;;;;;19.92;47.22;100877.39;;;;-52
2020/05/21 17:16:55;;;;;;;3.09;2.79;;;;;;;19.91;47.23;100875.98;;;;-52
2020/05/21 17:22:56;;;;;;;3.37;2.74;;;;;;;19.90;47.16;100870.57;;;;-52
2020/05/21 17:26:04;;;;;;;3.85;2.66;;;;;;;19.89;47.14;100872.16;;;;-51
2020/05/21 17:28:56;;;;;;;3.43;2.59;;;;;;;19.89;47.06;100875.61;;;;-49
2020/05/21 17:31:56;;;;;;;3.93;2.49;;;;;;;19.88;46.99;100879.75;;;;-50
2020/05/21 17:34:56;;;;;;;2.85;2.48;;;;;;;19.88;47.00;100879.31;;;;-50
2020/05/21 17:37:56;;;;;;;4.51;2.63;;;;;;;19.88;46.88;100883.67;;;;-50
2020/05/21 17:40:56;;;;;;;2.76;2.52;;;;;;;19.87;46.89;100885.73;;;;-50
2020/05/21 17:43:56;;;;;;;5.25;2.61;;;;;;;19.87;46.88;100886.56;;;;-50
2020/05/21 17:46:56;;;;;;;3.88;2.70;;;;;;;19.87;46.87;100885.06;;;;-50
2020/05/21 17:49:56;;;;;;;3.89;2.62;;;;;;;19.86;46.86;100885.68;;;;-50
2020/05/21 17:52:56;;;;;;;2.66;2.41;;;;;;;19.86;46.77;100887.77;;;;-50
2020/05/21 17:55:56;;;;;;;3.02;2.50;;;;;;;19.85;46.78;100889.83;;;;-49
2020/05/21 17:58:56;;;;;;;2.80;2.53;;;;;;;19.84;46.75;100890.89;;;;-50
2020/05/21 18:01:56;;;;;;;3.31;2.72;;;;;;;19.84;46.69;100891.56;;;;-50
2020/05/21 18:04:56;;;;;;;3.37;2.57;;;;;;;19.84;46.67;100893.12;;;;-50
2020/05/21 18:07:56;;;;;;;3.54;2.43;;;;;;;19.83;46.70;100888.56;;;;-50
2020/05/21 18:10:56;;;;;;;2.74;2.54;;;;;;;19.82;46.69;100888.11;;;;-50
2020/05/21 18:13:56;;;;;;;2.65;2.45;;;;;;;19.83;46.69;100889.73;;;;-50
2020/05/21 18:16:56;;;;;;;3.50;2.79;;;;;;;19.81;46.67;100890.91;;;;-50
2020/05/21 18:19:56;;;;;;;2.88;2.51;;;;;;;19.80;46.66;100892.43;;;;-50
2020/05/21 18:26:06;;;;;;;5.41;2.63;;;;;;;19.83;46.98;100899.05;;;;-50
2020/05/21 18:39:10;;;;;;;2.63;2.43;;;;;;;19.87;46.99;100916.23;;;;-51
2020/05/21 18:48:59;;;;;;;4.41;2.80;;;;;;;19.86;47.03;100925.64;;;;-54
2020/05/21 19:01:22;;;;;;;3.73;2.56;;;;;;;19.85;46.92;100928.37;;;;-54
2020/05/21 19:09:02;;;;;;;2.68;2.48;;;;;;;19.83;46.81;100926.87;;;;-54
2020/05/21 19:12:03;;;;;;;2.57;2.33;;;;;;;19.82;46.81;100936.03;;;;-54
2020/05/21 19:18:10;;;;;;;3.21;2.50;;;;;;;19.82;46.76;100939.73;;;;-54
2020/05/21 19:20:56;;;;;;;3.08;2.51;;;;;;;19.82;46.73;100938.73;;;;-55
2020/05/21 19:23:56;;;;;;;2.93;2.63;;;;;;;19.81;46.76;100939.17;;;;-51
2020/05/21 19:26:56;;;;;;;3.83;2.49;;;;;;;19.81;46.70;100943.43;;;;-52
2020/05/21 19:29:56;;;;;;;3.00;2.45;;;;;;;19.81;46.74;100945.77;;;;-52
2020/05/21 19:32:56;;;;;;;2.79;2.57;;;;;;;19.81;46.69;100948.45;;;;-51
2020/05/21 19:35:56;;;;;;;2.91;2.65;;;;;;;19.80;46.71;100950.86;;;;-51
2020/05/21 19:38:56;;;;;;;5.72;2.71;;;;;;;19.80;46.94;100955.37;;;;-49
2020/05/21 19:41:56;;;;;;;5.62;2.59;;;;;;;19.81;47.08;100955.77;;;;-49
2020/05/21 19:44:56;;;;;;;2.66;2.46;;;;;;;19.82;47.08;100961.24;;;;-48
2020/05/21 19:47:56;;;;;;;3.93;2.62;;;;;;;19.83;47.16;100968.77;;;;-49
2020/05/21 19:50:56;;;;;;;2.78;2.58;;;;;;;19.83;47.23;100967.33;;;;-51
2020/05/21 19:53:56;;;;;;;3.09;2.57;;;;;;;19.84;47.32;100967.83;;;;-49
2020/05/21 19:56:56;;;;;;;2.73;2.51;;;;;;;19.85;47.38;100965.58;;;;-50
2020/05/21 19:59:56;;;;;;;3.41;2.68;;;;;;;19.85;47.34;100973.41;;;;-49
2020/05/21 20:02:56;;;;;;;3.19;2.59;;;;;;;19.86;47.33;100973.08;;;;-53
2020/05/21 20:05:56;;;;;;;3.87;2.66;;;;;;;19.87;47.21;100975.75;;;;-53
2020/05/21 20:08:56;;;;;;;2.89;2.58;;;;;;;19.87;47.22;100983.86;;;;-53
2020/05/21 20:11:56;;;;;;;2.87;2.63;;;;;;;19.88;47.50;100983.41;;;;-49
2020/05/21 20:14:56;;;;;;;2.85;2.60;;;;;;;19.88;47.50;100980.83;;;;-51
2020/05/21 20:17:56;;;;;;;3.64;2.70;;;;;;;19.89;47.52;100982.39;;;;-52
2020/05/21 20:20:56;;;;;;;4.09;2.36;;;;;;;19.90;47.46;100976.40;;;;-54
2020/05/21 20:23:56;;;;;;;3.64;2.51;;;;;;;19.91;47.49;100978.96;;;;-49
2020/05/21 20:26:56;;;;;;;2.95;2.55;;;;;;;19.90;47.58;100978.08;;;;-49
2020/05/21 20:29:56;;;;;;;4.40;2.69;;;;;;;19.91;47.57;100978.91;;;;-51
2020/05/21 20:32:56;;;;;;;2.88;2.68;;;;;;;19.92;47.52;100973.55;;;;-51
2020/05/21 20:35:56;;;;;;;4.24;2.51;;;;;;;19.91;47.52;100969.91;;;;-49
2020/05/21 20:38:56;;;;;;;2.89;2.59;;;;;;;19.93;47.53;100975.84;;;;-53
2020/05/21 20:41:56;;;;;;;6.69;2.61;;;;;;;19.93;47.53;100975.84;;;;-50
2020/05/21 20:44:56;;;;;;;3.55;2.38;;;;;;;19.92;47.56;100974.44;;;;-50
2020/05/21 20:47:56;;;;;;;3.16;2.39;;;;;;;19.94;47.33;100979.75;;;;-49
2020/05/21 20:51:05;;;;;;;2.59;2.39;;;;;;;19.92;47.18;100976.84;;;;-49
2020/05/21 20:53:56;;;;;;;3.60;2.52;;;;;;;19.91;47.27;100979.58;;;;-49
2020/05/21 21:02:11;;;;;;;2.54;2.33;;;;;;;19.88;47.13;100982.11;;;;-48
2020/05/21 21:04:56;;;;;;;3.40;2.69;;;;;;;19.87;47.10;100981.34;;;;-53
2020/05/21 21:07:56;;;;;;;2.68;2.39;;;;;;;19.86;47.15;100983.18;;;;-53
2020/05/21 21:10:59;;;;;;;2.73;2.53;;;;;;;19.86;47.05;100981.22;;;;-53
2020/05/21 21:21:11;;;;;;;2.99;2.57;;;;;;;19.82;47.04;100983.81;;;;-54
2020/05/21 21:23:56;;;;;;;2.49;2.29;;;;;;;19.82;46.97;100986.39;;;;-53
2020/05/21 21:26:56;;;;;;;2.65;2.29;;;;;;;19.81;46.96;100992.87;;;;-53
2020/05/21 21:29:56;;;;;;;2.51;2.26;;;;;;;19.80;46.93;100990.64;;;;-54
2020/05/21 21:32:56;;;;;;;2.67;2.44;;;;;;;19.79;46.85;100994.55;;;;-53
2020/05/21 21:35:56;;;;;;;2.97;2.54;;;;;;;19.79;46.86;100995.38;;;;-53
2020/05/21 21:38:56;;;;;;;3.63;2.55;;;;;;;19.79;46.81;100995.11;;;;-54
2020/05/21 21:41:56;;;;;;;2.51;2.31;;;;;;;19.78;46.82;100993.88;;;;-54
2020/05/21 21:44:56;;;;;;;2.68;2.27;;;;;;;19.77;46.80;100997.97;;;;-53
2020/05/21 21:47:56;;;;;;;2.67;2.47;;;;;;;19.77;46.80;100995.11;;;;-53
2020/05/21 21:50:56;;;;;;;2.81;2.54;;;;;;;19.75;46.77;101000.05;;;;-53
2020/05/21 21:53:56;;;;;;;3.65;2.30;;;;;;;19.75;46.71;100999.87;;;;-53
2020/05/21 21:56:56;;;;;;;2.90;2.54;;;;;;;19.74;46.75;100989.77;;;;-53
2020/05/21 21:59:56;;;;;;;2.63;2.43;;;;;;;19.74;46.75;100982.72;;;;-54
2020/05/21 22:02:56;;;;;;;2.42;2.21;;;;;;;19.74;46.71;100983.22;;;;-53
2020/05/21 22:05:56;;;;;;;3.10;2.49;;;;;;;19.72;46.68;100974.68;;;;-53
2020/05/21 22:08:56;;;;;;;2.81;2.50;;;;;;;19.72;46.72;100976.04;;;;-54
2020/05/21 22:11:56;;;;;;;2.57;2.37;;;;;;;19.72;46.68;100980.84;;;;-54